createdAt,value
2023-08-26T00:00:24.313Z,96.39
2023-08-26T00:00:55.815Z,96.17
2023-08-26T00:01:27.452Z,96.32
2023-08-26T00:01:58.957Z,96.46
2023-08-26T00:02:30.484Z,96.60
2023-08-26T00:03:02.035Z,96.71
2023-08-26T00:03:33.630Z,96.39
2023-08-26T00:04:05.379Z,97.17
2023-08-26T00:04:37.022Z,96.72
2023-08-26T00:05:08.612Z,97.17
2023-08-26T00:05:40.053Z,96.76
2023-08-26T00:06:11.678Z,96.75
2023-08-26T00:06:43.162Z,96.31
2023-08-26T00:07:14.778Z,96.88
2023-08-26T00:07:46.247Z,96.99
2023-08-26T00:08:17.758Z,96.52
2023-08-26T00:08:51.351Z,96.92
2023-08-26T00:09:22.880Z,97.06
2023-08-26T00:09:54.362Z,96.59
2023-08-26T00:10:26.051Z,96.66
2023-08-26T00:10:58.189Z,96.92
2023-08-26T00:11:29.746Z,96.78
2023-08-26T00:12:01.231Z,96.75
2023-08-26T00:12:32.772Z,96.80
2023-08-26T00:13:04.654Z,96.72
2023-08-26T00:13:36.119Z,96.57
2023-08-26T00:14:07.616Z,96.92
2023-08-26T00:14:39.255Z,96.53
2023-08-26T00:15:10.845Z,96.72
2023-08-26T00:15:42.727Z,96.64
2023-08-26T00:16:15.519Z,97.06
2023-08-26T00:16:47.099Z,96.97
2023-08-26T00:17:18.982Z,97.04
2023-08-26T00:17:50.529Z,97.38
2023-08-26T00:18:22.101Z,97.15
2023-08-26T00:18:53.667Z,97.14
2023-08-26T00:19:25.433Z,97.20
2023-08-26T00:19:56.878Z,96.96
2023-08-26T00:20:28.827Z,97.35
2023-08-26T00:21:00.270Z,96.99
2023-08-26T00:21:32.464Z,96.89
2023-08-26T00:22:06.458Z,97.04
2023-08-26T00:22:38.583Z,97.48
2023-08-26T00:23:10.067Z,97.96
2023-08-26T00:23:41.489Z,97.73
2023-08-26T00:24:13.880Z,98.15
2023-08-26T00:24:45.388Z,98.13
2023-08-26T00:25:16.892Z,97.78
2023-08-26T00:25:48.329Z,98.05
2023-08-26T00:26:19.819Z,97.74
2023-08-26T00:26:51.334Z,97.89
2023-08-26T00:27:22.858Z,97.82
2023-08-26T00:27:54.643Z,98.03
2023-08-26T00:28:26.309Z,98.27
2023-08-26T00:28:57.821Z,97.94
2023-08-26T00:29:29.494Z,98.22
2023-08-26T00:30:00.902Z,98.54
2023-08-26T00:30:32.371Z,98.48
2023-08-26T00:31:04.331Z,98.69
2023-08-26T00:31:35.950Z,98.71
2023-08-26T00:32:07.534Z,98.72
2023-08-26T00:32:39.164Z,98.76
2023-08-26T00:33:11.085Z,99.21
2023-08-26T00:33:42.718Z,99.04
2023-08-26T00:34:14.324Z,98.61
2023-08-26T00:34:45.849Z,99.10
2023-08-26T00:35:17.351Z,98.79
2023-08-26T00:35:48.809Z,99.25
2023-08-26T00:36:20.335Z,99.18
2023-08-26T00:36:51.926Z,98.85
2023-08-26T00:37:23.382Z,98.52
2023-08-26T00:37:56.134Z,98.78
2023-08-26T00:38:29.126Z,99.04
2023-08-26T00:39:00.736Z,99.12
2023-08-26T00:39:32.624Z,98.80
2023-08-26T00:40:04.439Z,99.31
2023-08-26T00:40:36.895Z,99.01
2023-08-26T00:41:08.406Z,98.86
2023-08-26T00:41:40.079Z,98.82
2023-08-26T00:42:11.520Z,98.92
2023-08-26T00:42:43.145Z,99.05
2023-08-26T00:43:14.618Z,98.78
2023-08-26T00:43:46.489Z,98.55
2023-08-26T00:44:18.083Z,98.04
2023-08-26T00:44:49.488Z,98.25
2023-08-26T00:45:20.970Z,98.21
2023-08-26T00:45:52.826Z,98.14
2023-08-26T00:46:24.714Z,98.02
2023-08-26T00:46:57.529Z,98.88
2023-08-26T00:47:29.109Z,98.38
2023-08-26T00:48:00.619Z,99.02
2023-08-26T00:48:32.256Z,98.66
2023-08-26T00:49:03.993Z,98.49
2023-08-26T00:49:36.151Z,97.90
2023-08-26T00:50:08.533Z,98.02
2023-08-26T00:50:41.535Z,97.73
2023-08-26T00:51:14.020Z,98.16
2023-08-26T00:51:46.369Z,98.25
2023-08-26T00:52:17.953Z,98.04
2023-08-26T00:52:49.506Z,98.25
2023-08-26T00:53:22.443Z,98.91
2023-08-26T00:53:54.495Z,98.30
2023-08-26T00:54:26.355Z,98.79
2023-08-26T00:54:57.764Z,98.57
2023-08-26T00:55:29.595Z,98.95
2023-08-26T00:56:01.288Z,98.92
2023-08-26T00:56:34.290Z,99.04
2023-08-26T00:57:06.174Z,99.10
2023-08-26T00:57:37.791Z,99.32
2023-08-26T00:58:10.371Z,98.77
2023-08-26T00:58:42.389Z,99.00
2023-08-26T00:59:13.894Z,98.71
2023-08-26T00:59:45.388Z,98.72
2023-08-26T01:00:17.056Z,98.53
2023-08-26T01:00:49.167Z,98.40
2023-08-26T01:01:20.939Z,98.04
2023-08-26T01:01:53.465Z,98.83
2023-08-26T01:02:25.337Z,98.37
2023-08-26T01:02:57.011Z,98.59
2023-08-26T01:03:29.120Z,98.86
2023-08-26T01:04:00.759Z,98.67
2023-08-26T01:04:32.289Z,98.97
2023-08-26T01:05:06.850Z,99.10
2023-08-26T01:05:38.315Z,98.88
2023-08-26T01:06:09.957Z,99.13
2023-08-26T01:06:41.389Z,99.27
2023-08-26T01:07:12.873Z,99.23
2023-08-26T01:07:46.202Z,99.13
2023-08-26T01:08:17.913Z,99.71
2023-08-26T01:08:50.534Z,99.07
2023-08-26T01:09:22.041Z,98.77
2023-08-26T01:09:53.909Z,98.85
2023-08-26T01:10:46.506Z,99.02
2023-08-26T01:11:30.078Z,98.45
2023-08-26T01:12:52.833Z,98.20
2023-08-26T01:13:41.156Z,98.03
2023-08-26T01:14:46.002Z,98.02
2023-08-26T01:15:18.290Z,98.25
2023-08-26T01:15:52.517Z,98.32
2023-08-26T01:16:24.860Z,98.76
2023-08-26T01:16:57.762Z,98.38
2023-08-26T01:17:30.558Z,98.74
2023-08-26T01:18:06.807Z,98.54
2023-08-26T01:18:38.882Z,98.56
2023-08-26T01:19:21.299Z,98.83
2023-08-26T01:19:55.927Z,98.66
2023-08-26T01:20:28.527Z,98.63
2023-08-26T01:21:00.889Z,98.73
2023-08-26T01:21:43.376Z,98.50
2023-08-26T01:22:20.093Z,98.89
2023-08-26T01:22:55.884Z,98.26
2023-08-26T01:23:43.625Z,98.56
2023-08-26T01:24:16.128Z,98.27
2023-08-26T01:24:48.062Z,98.58
2023-08-26T01:25:19.777Z,98.77
2023-08-26T01:25:53.641Z,98.71
2023-08-26T01:26:25.088Z,98.53
2023-08-26T01:26:56.585Z,98.53
2023-08-26T01:27:28.050Z,98.81
2023-08-26T01:27:59.773Z,99.26
2023-08-26T01:28:31.372Z,99.36
2023-08-26T01:29:02.919Z,98.96
2023-08-26T01:29:34.492Z,99.24
2023-08-26T01:30:07.402Z,98.74
2023-08-26T01:30:38.926Z,99.10
2023-08-26T01:31:14.085Z,98.86
2023-08-26T01:31:51.927Z,98.53
2023-08-26T01:32:34.730Z,98.72
2023-08-26T01:33:16.735Z,98.84
2023-08-26T01:34:03.521Z,99.00
2023-08-26T01:34:38.674Z,98.64
2023-08-26T01:35:16.974Z,98.95
2023-08-26T01:35:51.238Z,99.04
2023-08-26T01:36:26.318Z,99.03
2023-08-26T01:36:59.619Z,98.79
2023-08-26T01:37:31.509Z,99.03
2023-08-26T01:38:03.793Z,99.36
2023-08-26T01:38:36.982Z,99.49
2023-08-26T01:39:09.140Z,99.44
2023-08-26T01:39:42.679Z,99.68
2023-08-26T01:40:14.807Z,99.46
2023-08-26T01:40:54.276Z,99.33
2023-08-26T01:41:28.346Z,99.54
2023-08-26T01:42:02.384Z,99.59
2023-08-26T01:42:37.972Z,99.33
2023-08-26T01:43:09.594Z,99.31
2023-08-26T01:43:42.325Z,99.71
2023-08-26T01:44:13.802Z,99.30
2023-08-26T01:44:45.700Z,99.43
2023-08-26T01:45:17.175Z,99.33
2023-08-26T01:45:48.850Z,100.00
2023-08-26T01:46:20.328Z,99.75
2023-08-26T01:46:52.519Z,100.00
2023-08-26T01:47:24.056Z,99.98
2023-08-26T01:47:55.943Z,99.83
2023-08-26T01:48:27.678Z,99.74
2023-08-26T01:48:59.105Z,99.59
2023-08-26T01:49:30.534Z,99.94
2023-08-26T01:50:01.946Z,99.99
2023-08-26T01:50:33.397Z,99.81
2023-08-26T01:51:04.879Z,100.00
2023-08-26T01:51:36.557Z,99.64
2023-08-26T01:52:08.135Z,100.00
2023-08-26T01:52:39.523Z,99.98
2023-08-26T01:53:11.130Z,99.82
2023-08-26T01:53:42.662Z,99.95
2023-08-26T01:54:14.106Z,99.85
2023-08-26T01:54:50.208Z,100.00
2023-08-26T01:55:21.664Z,99.77
2023-08-26T01:55:53.211Z,99.85
2023-08-26T01:56:24.680Z,99.59
2023-08-26T01:56:56.340Z,100.00
2023-08-26T01:57:27.798Z,99.58
2023-08-26T01:57:59.302Z,99.63
2023-08-26T01:58:30.754Z,100.00
2023-08-26T01:59:02.343Z,99.51
2023-08-26T01:59:33.766Z,99.65
2023-08-26T02:00:06.283Z,99.35
2023-08-26T02:00:37.900Z,99.48
2023-08-26T02:01:09.308Z,99.91
2023-08-26T02:01:40.790Z,99.64
2023-08-26T02:02:12.411Z,99.49
2023-08-26T02:02:44.114Z,99.27
2023-08-26T02:03:15.711Z,99.74
2023-08-26T02:04:06.337Z,99.81
2023-08-26T02:04:41.011Z,99.21
2023-08-26T02:05:12.498Z,99.01
2023-08-26T02:05:44.016Z,99.17
2023-08-26T02:06:15.523Z,99.94
2023-08-26T02:06:46.985Z,99.94
2023-08-26T02:07:18.521Z,99.88
2023-08-26T02:07:49.984Z,99.67
2023-08-26T02:08:21.481Z,99.54
2023-08-26T02:08:54.370Z,99.51
2023-08-26T02:09:25.930Z,99.69
2023-08-26T02:09:57.424Z,99.59
2023-08-26T02:10:28.983Z,99.67
2023-08-26T02:11:00.442Z,99.26
2023-08-26T02:11:31.909Z,99.32
2023-08-26T02:12:03.480Z,99.06
2023-08-26T02:12:35.074Z,99.56
2023-08-26T02:13:06.555Z,99.46
2023-08-26T02:13:38.017Z,99.53
2023-08-26T02:14:09.502Z,99.77
2023-08-26T02:14:41.060Z,99.59
2023-08-26T02:15:12.625Z,99.72
2023-08-26T02:15:44.061Z,99.40
2023-08-26T02:16:15.528Z,99.62
2023-08-26T02:16:47.293Z,99.73
2023-08-26T02:17:37.505Z,99.91
2023-08-26T02:18:08.937Z,100.00
2023-08-26T02:18:40.542Z,100.00
2023-08-26T02:19:12.075Z,100.00
2023-08-26T02:19:43.937Z,100.00
2023-08-26T02:20:15.446Z,100.00
2023-08-26T02:20:46.902Z,100.00
2023-08-26T02:21:18.386Z,100.00
2023-08-26T02:21:49.778Z,100.00
2023-08-26T02:22:21.490Z,100.00
2023-08-26T02:22:52.873Z,100.00
2023-08-26T02:23:24.312Z,100.00
2023-08-26T02:23:55.811Z,100.00
2023-08-26T02:24:27.309Z,100.00
2023-08-26T02:24:58.755Z,100.00
2023-08-26T02:25:30.149Z,100.00
2023-08-26T02:26:01.587Z,100.00
2023-08-26T02:26:32.985Z,100.00
2023-08-26T02:27:04.626Z,100.00
2023-08-26T02:27:36.208Z,100.00
2023-08-26T02:28:08.269Z,100.00
2023-08-26T02:28:39.799Z,100.00
2023-08-26T02:29:11.237Z,100.00
2023-08-26T02:29:42.635Z,100.00
2023-08-26T02:30:14.180Z,100.00
2023-08-26T02:30:45.664Z,100.00
2023-08-26T02:31:17.209Z,100.00
2023-08-26T02:31:48.860Z,100.00
2023-08-26T02:32:20.319Z,100.00
2023-08-26T02:32:51.859Z,100.00
2023-08-26T02:33:25.386Z,100.00
2023-08-26T02:33:56.801Z,100.00
2023-08-26T02:34:28.266Z,100.00
2023-08-26T02:34:59.677Z,100.00
2023-08-26T02:35:31.290Z,100.00
2023-08-26T02:36:02.785Z,100.00
2023-08-26T02:36:34.270Z,100.00
2023-08-26T02:37:05.711Z,100.00
2023-08-26T02:37:37.168Z,100.00
2023-08-26T02:38:09.153Z,100.00
2023-08-26T02:38:40.798Z,100.00
2023-08-26T02:39:12.236Z,100.00
2023-08-26T02:39:43.688Z,100.00
2023-08-26T02:40:15.204Z,100.00
2023-08-26T02:40:56.025Z,100.00
2023-08-26T02:41:27.418Z,100.00
2023-08-26T02:41:58.911Z,100.00
2023-08-26T02:42:30.805Z,100.00
2023-08-26T02:43:02.319Z,100.00
2023-08-26T02:43:33.963Z,100.00
2023-08-26T02:44:06.346Z,100.00
2023-08-26T02:44:38.042Z,99.93
2023-08-26T02:45:09.854Z,99.98
2023-08-26T02:45:41.329Z,100.00
2023-08-26T02:46:12.888Z,100.00
2023-08-26T02:46:44.326Z,100.00
2023-08-26T02:47:15.783Z,100.00
2023-08-26T02:47:47.556Z,100.00
2023-08-26T02:48:19.008Z,100.00
2023-08-26T02:48:52.063Z,100.00
2023-08-26T02:49:23.570Z,99.99
2023-08-26T02:49:55.018Z,100.00
2023-08-26T02:50:26.475Z,99.66
2023-08-26T02:50:59.872Z,99.48
2023-08-26T02:51:32.346Z,99.05
2023-08-26T02:52:03.935Z,98.13
2023-08-26T02:52:35.472Z,98.14
2023-08-26T02:53:06.976Z,97.88
2023-08-26T02:53:38.387Z,97.42
2023-08-26T02:54:09.967Z,97.56
2023-08-26T02:54:41.499Z,97.96
2023-08-26T02:55:12.998Z,98.15
2023-08-26T02:56:03.069Z,98.24
2023-08-26T02:56:34.522Z,97.78
2023-08-26T02:57:06.047Z,97.25
2023-08-26T02:57:37.515Z,97.58
2023-08-26T02:58:09.081Z,97.43
2023-08-26T02:58:40.532Z,97.13
2023-08-26T02:59:12.016Z,96.96
2023-08-26T02:59:43.860Z,97.13
2023-08-26T03:00:15.382Z,97.40
2023-08-26T03:00:47.799Z,97.18
2023-08-26T03:01:19.461Z,96.51
2023-08-26T03:01:59.884Z,96.68
2023-08-26T03:02:31.477Z,96.77
2023-08-26T03:03:03.185Z,97.05
2023-08-26T03:03:34.850Z,96.94
2023-08-26T03:04:06.394Z,96.94
2023-08-26T03:04:37.925Z,96.90
2023-08-26T03:05:09.485Z,97.31
2023-08-26T03:05:41.666Z,96.57
2023-08-26T03:06:13.205Z,96.57
2023-08-26T03:06:44.915Z,96.73
2023-08-26T03:07:16.355Z,96.62
2023-08-26T03:07:47.834Z,97.01
2023-08-26T03:08:19.451Z,96.63
2023-08-26T03:08:50.928Z,96.61
2023-08-26T03:09:22.486Z,96.73
2023-08-26T03:09:54.046Z,96.23
2023-08-26T03:10:25.480Z,95.97
2023-08-26T03:11:01.999Z,95.96
2023-08-26T03:11:33.458Z,94.92
2023-08-26T03:12:05.016Z,94.65
2023-08-26T03:12:36.413Z,95.41
2023-08-26T03:13:08.234Z,95.64
2023-08-26T03:13:39.762Z,96.00
2023-08-26T03:14:11.216Z,96.14
2023-08-26T03:14:42.707Z,96.02
2023-08-26T03:15:14.645Z,95.79
2023-08-26T03:15:46.126Z,95.59
2023-08-26T03:16:17.755Z,95.34
2023-08-26T03:16:49.238Z,95.12
2023-08-26T03:17:20.702Z,95.37
2023-08-26T03:17:52.271Z,95.41
2023-08-26T03:18:23.965Z,95.77
2023-08-26T03:18:55.451Z,95.34
2023-08-26T03:19:27.180Z,95.28
2023-08-26T03:19:58.662Z,94.95
2023-08-26T03:20:31.194Z,95.58
2023-08-26T03:21:04.621Z,95.43
2023-08-26T03:21:36.522Z,95.72
2023-08-26T03:22:08.051Z,95.24
2023-08-26T03:22:39.615Z,95.35
2023-08-26T03:23:11.144Z,95.62
2023-08-26T03:23:42.609Z,95.49
2023-08-26T03:24:16.332Z,95.69
2023-08-26T03:24:47.845Z,95.61
2023-08-26T03:25:19.300Z,95.28
2023-08-26T03:25:50.833Z,95.67
2023-08-26T03:26:22.282Z,95.51
2023-08-26T03:26:53.769Z,95.56
2023-08-26T03:27:26.182Z,95.53
2023-08-26T03:27:57.936Z,95.88
2023-08-26T03:28:29.633Z,95.30
2023-08-26T03:29:01.020Z,95.35
2023-08-26T03:29:32.395Z,95.48
2023-08-26T03:30:04.319Z,95.41
2023-08-26T03:30:36.774Z,95.74
2023-08-26T03:31:08.358Z,95.25
2023-08-26T03:31:39.916Z,95.06
2023-08-26T03:32:11.639Z,95.21
2023-08-26T03:32:43.134Z,95.12
2023-08-26T03:33:14.616Z,95.00
2023-08-26T03:33:46.282Z,95.25
2023-08-26T03:34:17.653Z,94.54
2023-08-26T03:34:49.120Z,95.23
2023-08-26T03:35:21.401Z,95.52
2023-08-26T03:35:52.991Z,94.96
2023-08-26T03:36:24.449Z,94.54
2023-08-26T03:36:55.895Z,94.94
2023-08-26T03:37:27.370Z,95.61
2023-08-26T03:37:59.058Z,95.63
2023-08-26T03:38:30.549Z,95.27
2023-08-26T03:39:02.014Z,95.50
2023-08-26T03:39:33.441Z,95.56
2023-08-26T03:40:09.886Z,95.62
2023-08-26T03:40:41.499Z,95.71
2023-08-26T03:41:13.676Z,95.65
2023-08-26T03:41:45.054Z,95.36
2023-08-26T03:42:16.607Z,95.34
2023-08-26T03:42:48.095Z,95.37
2023-08-26T03:43:19.549Z,95.24
2023-08-26T03:43:51.214Z,95.24
2023-08-26T03:44:22.679Z,95.39
2023-08-26T03:44:54.094Z,95.17
2023-08-26T03:45:27.569Z,95.02
2023-08-26T03:45:59.954Z,95.18
2023-08-26T03:46:31.392Z,95.41
2023-08-26T03:47:03.236Z,95.25
2023-08-26T03:47:34.994Z,94.96
2023-08-26T03:48:06.659Z,95.52
2023-08-26T03:48:38.111Z,95.54
2023-08-26T03:49:09.675Z,95.44
2023-08-26T03:49:41.283Z,95.06
2023-08-26T03:50:12.714Z,95.41
2023-08-26T03:50:55.058Z,95.25
2023-08-26T03:51:26.561Z,94.96
2023-08-26T03:51:58.171Z,95.16
2023-08-26T03:52:29.730Z,95.16
2023-08-26T03:53:01.143Z,94.98
2023-08-26T03:53:33.558Z,95.29
2023-08-26T03:54:05.253Z,95.21
2023-08-26T03:54:37.618Z,95.00
2023-08-26T03:55:09.676Z,95.42
2023-08-26T03:55:42.258Z,94.94
2023-08-26T03:56:14.969Z,94.77
2023-08-26T03:56:46.476Z,94.56
2023-08-26T03:57:17.987Z,95.03
2023-08-26T03:57:49.396Z,95.37
2023-08-26T03:58:20.843Z,95.01
2023-08-26T03:58:57.406Z,94.45
2023-08-26T03:59:28.938Z,94.57
2023-08-26T04:00:00.365Z,94.42
2023-08-26T04:00:31.748Z,94.27
2023-08-26T04:01:07.757Z,94.47
2023-08-26T04:01:39.435Z,94.13
2023-08-26T04:02:11.061Z,94.31
2023-08-26T04:02:42.510Z,94.54
2023-08-26T04:03:14.323Z,94.78
2023-08-26T04:04:34.611Z,95.37
2023-08-26T04:05:06.750Z,94.97
2023-08-26T04:06:03.956Z,94.95
2023-08-26T04:06:35.560Z,94.88
2023-08-26T04:07:07.002Z,94.88
2023-08-26T04:07:38.409Z,94.40
2023-08-26T04:08:10.098Z,94.42
2023-08-26T04:08:41.611Z,94.53
2023-08-26T04:09:13.691Z,94.93
2023-08-26T04:09:45.254Z,95.03
2023-08-26T04:10:16.839Z,95.20
2023-08-26T04:10:48.288Z,94.91
2023-08-26T04:11:20.306Z,94.80
2023-08-26T04:11:51.718Z,94.81
2023-08-26T04:12:23.207Z,95.04
2023-08-26T04:12:54.716Z,94.60
2023-08-26T04:13:27.517Z,94.66
2023-08-26T04:13:59.057Z,95.06
2023-08-26T04:14:30.775Z,94.83
2023-08-26T04:15:02.390Z,94.99
2023-08-26T04:15:34.171Z,94.82
2023-08-26T04:16:05.797Z,94.77
2023-08-26T04:16:37.255Z,94.80
2023-08-26T04:17:08.747Z,94.76
2023-08-26T04:17:42.177Z,94.73
2023-08-26T04:18:14.470Z,94.67
2023-08-26T04:18:46.195Z,94.73
2023-08-26T04:19:17.897Z,94.78
2023-08-26T04:19:49.343Z,95.16
2023-08-26T04:20:20.801Z,95.29
2023-08-26T04:20:53.483Z,94.97
2023-08-26T04:21:25.184Z,94.84
2023-08-26T04:21:56.779Z,94.85
2023-08-26T04:22:28.559Z,94.79
2023-08-26T04:23:00.045Z,94.76
2023-08-26T04:23:31.884Z,94.27
2023-08-26T04:24:03.471Z,94.23
2023-08-26T04:24:34.929Z,94.77
2023-08-26T04:25:06.916Z,94.53
2023-08-26T04:25:39.984Z,94.70
2023-08-26T04:26:11.479Z,94.77
2023-08-26T04:26:42.872Z,94.92
2023-08-26T04:27:14.477Z,94.64
2023-08-26T04:27:45.927Z,95.24
2023-08-26T04:28:17.403Z,95.39
2023-08-26T04:28:48.921Z,95.21
2023-08-26T04:29:20.573Z,94.65
2023-08-26T04:29:52.101Z,94.43
2023-08-26T04:30:23.527Z,94.89
2023-08-26T04:30:55.022Z,94.82
2023-08-26T04:31:26.579Z,94.80
2023-08-26T04:31:58.212Z,94.97
2023-08-26T04:32:29.724Z,95.39
2023-08-26T04:33:02.166Z,95.34
2023-08-26T04:33:33.675Z,95.39
2023-08-26T04:34:05.292Z,95.05
2023-08-26T04:34:36.808Z,95.00
2023-08-26T04:35:08.492Z,94.98
2023-08-26T04:35:40.036Z,95.15
2023-08-26T04:36:11.712Z,95.17
2023-08-26T04:36:43.241Z,95.60
2023-08-26T04:37:14.692Z,95.53
2023-08-26T04:37:46.138Z,95.11
2023-08-26T04:38:17.597Z,95.32
2023-08-26T04:38:49.034Z,95.40
2023-08-26T04:39:23.238Z,95.17
2023-08-26T04:39:54.715Z,95.14
2023-08-26T04:40:28.807Z,95.51
2023-08-26T04:41:00.287Z,95.47
2023-08-26T04:41:31.754Z,95.37
2023-08-26T04:42:04.367Z,95.79
2023-08-26T04:42:36.681Z,95.29
2023-08-26T04:43:09.452Z,94.74
2023-08-26T04:43:41.928Z,95.39
2023-08-26T04:44:13.532Z,95.64
2023-08-26T04:45:04.819Z,95.75
2023-08-26T04:45:36.271Z,95.59
2023-08-26T04:46:08.025Z,95.92
2023-08-26T04:46:39.503Z,95.70
2023-08-26T04:47:10.978Z,95.90
2023-08-26T04:47:45.976Z,95.69
2023-08-26T04:48:17.523Z,95.93
2023-08-26T04:48:48.973Z,96.42
2023-08-26T04:49:20.399Z,96.16
2023-08-26T04:49:51.905Z,95.99
2023-08-26T04:50:23.281Z,95.75
2023-08-26T04:50:54.923Z,95.72
2023-08-26T04:51:26.363Z,95.95
2023-08-26T04:51:58.205Z,96.33
2023-08-26T04:52:29.693Z,96.46
2023-08-26T04:53:02.184Z,96.15
2023-08-26T04:53:33.617Z,96.17
2023-08-26T04:54:05.521Z,95.96
2023-08-26T04:54:36.965Z,95.74
2023-08-26T04:55:09.202Z,96.58
2023-08-26T04:55:40.597Z,96.73
2023-08-26T04:56:12.013Z,96.89
2023-08-26T04:56:43.546Z,96.54
2023-08-26T04:57:15.060Z,96.52
2023-08-26T04:57:46.546Z,96.15
2023-08-26T04:58:18.740Z,96.30
2023-08-26T04:58:50.140Z,96.27
2023-08-26T04:59:21.568Z,96.61
2023-08-26T04:59:53.116Z,96.58
2023-08-26T05:00:24.768Z,96.02
2023-08-26T05:00:56.312Z,96.77
2023-08-26T05:01:28.580Z,96.99
2023-08-26T05:02:00.016Z,97.10
2023-08-26T05:02:31.489Z,97.01
2023-08-26T05:03:03.175Z,97.02
2023-08-26T05:03:34.865Z,96.82
2023-08-26T05:04:06.527Z,96.87
2023-08-26T05:05:27.689Z,96.58
2023-08-26T05:05:59.191Z,96.77
2023-08-26T05:06:30.617Z,96.57
2023-08-26T05:07:02.023Z,97.00
2023-08-26T05:07:33.792Z,96.97
2023-08-26T05:08:05.377Z,96.75
2023-08-26T05:08:36.840Z,96.31
2023-08-26T05:09:08.289Z,96.77
2023-08-26T05:09:39.846Z,97.08
2023-08-26T05:10:11.389Z,96.79
2023-08-26T05:10:42.887Z,96.91
2023-08-26T05:11:14.321Z,96.89
2023-08-26T05:11:45.765Z,96.76
2023-08-26T05:12:17.717Z,96.45
2023-08-26T05:12:49.110Z,96.29
2023-08-26T05:13:20.608Z,96.00
2023-08-26T05:13:52.602Z,95.77
2023-08-26T05:14:26.881Z,96.23
2023-08-26T05:14:58.353Z,96.52
2023-08-26T05:15:30.307Z,96.05
2023-08-26T05:16:01.918Z,96.26
2023-08-26T05:16:33.500Z,96.26
2023-08-26T05:17:05.152Z,96.37
2023-08-26T05:17:36.820Z,96.29
2023-08-26T05:18:08.331Z,96.44
2023-08-26T05:18:39.854Z,96.66
2023-08-26T05:19:11.224Z,96.69
2023-08-26T05:19:43.433Z,96.36
2023-08-26T05:20:14.914Z,96.32
2023-08-26T05:20:46.512Z,96.54
2023-08-26T05:21:18.006Z,96.14
2023-08-26T05:21:49.753Z,96.51
2023-08-26T05:22:22.276Z,96.24
2023-08-26T05:22:53.798Z,96.27
2023-08-26T05:23:25.229Z,96.21
2023-08-26T05:23:56.826Z,96.17
2023-08-26T05:24:30.935Z,96.27
2023-08-26T05:25:02.563Z,96.67
2023-08-26T05:25:35.840Z,96.26
2023-08-26T05:26:07.268Z,96.43
2023-08-26T05:26:38.726Z,96.35
2023-08-26T05:27:10.238Z,96.34
2023-08-26T05:27:42.143Z,96.37
2023-08-26T05:28:17.885Z,96.69
2023-08-26T05:28:49.304Z,96.65
2023-08-26T05:29:20.814Z,96.68
2023-08-26T05:29:52.458Z,96.58
2023-08-26T05:30:23.895Z,96.84
2023-08-26T05:30:55.427Z,96.36
2023-08-26T05:31:27.761Z,96.47
2023-08-26T05:31:59.168Z,96.21
2023-08-26T05:32:30.734Z,96.70
2023-08-26T05:33:02.202Z,96.69
2023-08-26T05:33:33.719Z,96.63
2023-08-26T05:34:05.366Z,96.99
2023-08-26T05:34:37.196Z,96.70
2023-08-26T05:35:09.353Z,96.94
2023-08-26T05:35:40.972Z,97.05
2023-08-26T05:36:30.755Z,97.24
2023-08-26T05:37:02.164Z,96.95
2023-08-26T05:37:33.643Z,97.41
2023-08-26T05:38:05.053Z,96.93
2023-08-26T05:39:25.711Z,97.21
2023-08-26T05:39:57.184Z,96.95
2023-08-26T05:40:30.148Z,97.20
2023-08-26T05:41:01.663Z,97.08
2023-08-26T05:41:33.124Z,96.90
2023-08-26T05:42:04.761Z,96.96
2023-08-26T05:42:36.184Z,96.97
2023-08-26T05:43:07.628Z,97.21
2023-08-26T05:43:58.047Z,97.12
2023-08-26T05:44:29.431Z,97.15
2023-08-26T05:45:00.875Z,96.83
2023-08-26T05:45:32.380Z,96.82
2023-08-26T05:46:03.902Z,96.87
2023-08-26T05:46:35.489Z,97.24
2023-08-26T05:47:06.946Z,97.24
2023-08-26T05:47:38.444Z,97.16
2023-08-26T05:48:09.981Z,97.24
2023-08-26T05:48:41.492Z,97.37
2023-08-26T05:49:12.910Z,97.30
2023-08-26T05:49:44.360Z,96.94
2023-08-26T05:50:15.827Z,97.59
2023-08-26T05:50:47.289Z,97.33
2023-08-26T05:51:18.765Z,97.11
2023-08-26T05:51:50.217Z,96.98
2023-08-26T05:52:21.621Z,97.80
2023-08-26T05:52:53.449Z,97.67
2023-08-26T05:53:24.974Z,97.53
2023-08-26T05:53:56.372Z,97.20
2023-08-26T05:54:27.856Z,97.65
2023-08-26T05:54:59.333Z,97.20
2023-08-26T05:55:30.720Z,97.35
2023-08-26T05:56:02.546Z,97.42
2023-08-26T05:56:34.014Z,97.76
2023-08-26T05:57:24.374Z,97.57
2023-08-26T05:57:57.687Z,97.56
2023-08-26T05:58:29.452Z,97.08
2023-08-26T05:59:00.898Z,97.04
2023-08-26T05:59:33.573Z,97.24
2023-08-26T06:00:08.157Z,97.21
2023-08-26T06:00:40.646Z,97.03
2023-08-26T06:01:12.137Z,96.65
2023-08-26T06:01:44.235Z,96.87
2023-08-26T06:02:15.751Z,97.19
2023-08-26T06:02:47.207Z,97.29
2023-08-26T06:03:18.783Z,96.87
2023-08-26T06:03:50.284Z,97.53
2023-08-26T06:04:40.259Z,97.37
2023-08-26T06:05:11.736Z,96.91
2023-08-26T06:05:43.257Z,97.45
2023-08-26T06:06:14.708Z,97.25
2023-08-26T06:06:46.552Z,97.45
2023-08-26T06:07:19.329Z,97.55
2023-08-26T06:07:52.683Z,97.64
2023-08-26T06:08:24.137Z,97.34
2023-08-26T06:08:55.654Z,97.12
2023-08-26T06:09:27.493Z,96.72
2023-08-26T06:09:58.970Z,96.91
2023-08-26T06:10:32.717Z,97.39
2023-08-26T06:11:04.403Z,97.61
2023-08-26T06:11:36.445Z,97.59
2023-08-26T06:12:08.234Z,97.63
2023-08-26T06:12:39.807Z,97.61
2023-08-26T06:13:11.709Z,97.20
2023-08-26T06:13:43.154Z,96.75
2023-08-26T06:14:14.579Z,96.83
2023-08-26T06:14:46.173Z,96.65
2023-08-26T06:15:17.694Z,96.69
2023-08-26T06:15:56.023Z,97.40
2023-08-26T06:16:27.608Z,96.74
2023-08-26T06:16:59.316Z,96.73
2023-08-26T06:17:30.886Z,96.63
2023-08-26T06:18:03.940Z,96.95
2023-08-26T06:18:35.440Z,96.57
2023-08-26T06:19:06.987Z,96.65
2023-08-26T06:19:38.480Z,96.52
2023-08-26T06:20:10.495Z,97.07
2023-08-26T06:20:41.911Z,96.66
2023-08-26T06:21:13.386Z,96.39
2023-08-26T06:22:03.376Z,96.45
2023-08-26T06:22:35.039Z,96.27
2023-08-26T06:23:06.482Z,95.96
2023-08-26T06:23:38.017Z,96.14
2023-08-26T06:24:09.591Z,96.27
2023-08-26T06:24:41.091Z,96.17
2023-08-26T06:25:13.257Z,96.14
2023-08-26T06:26:11.409Z,96.14
2023-08-26T06:26:44.455Z,96.39
2023-08-26T06:27:16.085Z,96.25
2023-08-26T06:27:47.545Z,96.31
2023-08-26T06:28:19.396Z,95.89
2023-08-26T06:28:50.920Z,95.63
2023-08-26T06:29:25.318Z,95.94
2023-08-26T06:29:59.749Z,95.84
2023-08-26T06:30:31.197Z,96.28
2023-08-26T06:31:03.550Z,96.76
2023-08-26T06:31:35.235Z,96.73
2023-08-26T06:32:06.819Z,96.60
2023-08-26T06:32:38.350Z,96.74
2023-08-26T06:33:10.872Z,96.84
2023-08-26T06:33:42.361Z,97.34
2023-08-26T06:34:16.542Z,97.27
2023-08-26T06:34:48.852Z,96.78
2023-08-26T06:35:20.802Z,96.61
2023-08-26T06:35:52.353Z,96.32
2023-08-26T06:36:23.859Z,96.21
2023-08-26T06:36:55.317Z,96.03
2023-08-26T06:37:26.979Z,95.66
2023-08-26T06:37:58.609Z,95.97
2023-08-26T06:38:30.349Z,96.20
2023-08-26T06:39:01.848Z,96.07
2023-08-26T06:39:33.299Z,96.06
2023-08-26T06:40:06.192Z,95.96
2023-08-26T06:40:37.709Z,96.08
2023-08-26T06:41:09.250Z,96.14
2023-08-26T06:41:40.676Z,95.98
2023-08-26T06:42:12.231Z,95.81
2023-08-26T06:42:43.660Z,95.84
2023-08-26T06:43:15.078Z,95.67
2023-08-26T06:43:46.472Z,95.79
2023-08-26T06:44:17.866Z,95.69
2023-08-26T06:44:49.268Z,96.34
2023-08-26T06:45:20.681Z,96.51
2023-08-26T06:45:52.217Z,96.56
2023-08-26T06:46:23.812Z,96.61
2023-08-26T06:46:55.528Z,96.47
2023-08-26T06:47:27.124Z,95.97
2023-08-26T06:47:59.125Z,96.34
2023-08-26T06:48:30.962Z,95.78
2023-08-26T06:49:02.471Z,95.89
2023-08-26T06:49:33.875Z,95.66
2023-08-26T06:50:09.156Z,95.27
2023-08-26T06:50:41.668Z,95.32
2023-08-26T06:51:13.114Z,95.40
2023-08-26T06:51:44.544Z,95.78
2023-08-26T06:52:16.020Z,95.30
2023-08-26T06:52:47.747Z,95.45
2023-08-26T06:53:37.650Z,95.42
2023-08-26T06:54:09.071Z,95.65
2023-08-26T06:54:40.521Z,96.03
2023-08-26T06:55:11.926Z,96.24
2023-08-26T06:55:43.504Z,96.08
2023-08-26T06:56:15.413Z,96.16
2023-08-26T06:56:46.848Z,96.35
2023-08-26T06:57:18.370Z,95.93
2023-08-26T06:57:49.821Z,95.91
2023-08-26T06:58:21.894Z,95.84
2023-08-26T06:58:53.750Z,95.34
2023-08-26T06:59:25.165Z,95.79
2023-08-26T06:59:56.533Z,95.64